Terminal Aerodrome Forecast
Issued by NWS Northern Indiana

Home | Current Version | Previous Version | Text Only | Print | Product List | Glossary Off
Versions: 1 2 3 4 5 6 7 8 9 10 11 12 13 14 15 16 17 18

000
FTUS43 KIWX 272325
TAFFWA
TAF
KFWA 272325Z 2800/2824 19005KT P6SM SCT035
     FM280700 00000KT 3SM BR SCT010 BKN150
      TEMPO 2809/2812 1 1/2SM BR BKN010
     FM281300 00000KT P6SM BKN020
     FM281600 VRB03KT P6SM SCT030 BKN110
     FM281800 27005KT P6SM BKN040=

USA.gov is the U.S. government's official web portal to all federal, state and local government web resources and services.